createdAt,value
2023-03-16T00:00:14.040Z,47.92
2023-03-16T00:00:45.857Z,48.35
2023-03-16T00:01:18.772Z,47.90
2023-03-16T00:01:50.523Z,47.89
2023-03-16T00:02:22.398Z,48.01
2023-03-16T00:02:54.293Z,48.16
2023-03-16T00:03:30.561Z,48.30
2023-03-16T00:04:02.417Z,48.56
2023-03-16T00:04:37.897Z,48.62
2023-03-16T00:05:13.067Z,48.24
2023-03-16T00:05:54.694Z,48.04
2023-03-16T00:06:26.509Z,47.94
2023-03-16T00:06:59.149Z,48.31
2023-03-16T00:07:30.928Z,47.82
2023-03-16T00:08:03.299Z,48.75
2023-03-16T00:08:35.948Z,48.21
2023-03-16T00:09:09.803Z,47.36
2023-03-16T00:09:42.855Z,47.37
2023-03-16T00:10:14.730Z,48.11
2023-03-16T00:10:47.305Z,47.94
2023-03-16T00:11:19.068Z,47.66
2023-03-16T00:11:51.034Z,48.21
2023-03-16T00:12:22.838Z,47.73
2023-03-16T00:12:55.241Z,47.40
2023-03-16T00:13:27.661Z,47.72
2023-03-16T00:13:59.443Z,47.43
2023-03-16T00:14:32.611Z,47.47
2023-03-16T00:15:05.133Z,46.88
2023-03-16T00:15:36.874Z,47.67
2023-03-16T00:16:09.146Z,47.52
2023-03-16T00:16:41.040Z,47.96
2023-03-16T00:17:20.262Z,47.57
2023-03-16T00:17:52.249Z,47.64
2023-03-16T00:18:29.154Z,47.73
2023-03-16T00:19:03.291Z,47.47
2023-03-16T00:19:35.351Z,47.23
2023-03-16T00:20:07.852Z,47.17
2023-03-16T00:20:39.594Z,47.20
2023-03-16T00:21:14.984Z,47.65
2023-03-16T00:21:46.773Z,47.50
2023-03-16T00:22:18.523Z,47.90
2023-03-16T00:22:50.344Z,48.14
2023-03-16T00:23:27.586Z,47.90
2023-03-16T00:23:59.432Z,48.10
2023-03-16T00:24:32.006Z,48.01
2023-03-16T00:25:04.678Z,48.13
2023-03-16T00:25:36.425Z,48.27
2023-03-16T00:26:10.128Z,48.15
2023-03-16T00:26:42.376Z,48.09
2023-03-16T00:27:15.668Z,47.69
2023-03-16T00:27:47.699Z,47.66
2023-03-16T00:28:19.662Z,47.73
2023-03-16T00:28:54.404Z,47.47
2023-03-16T00:29:26.306Z,48.10
2023-03-16T00:29:58.159Z,48.32
2023-03-16T00:30:32.859Z,47.44
2023-03-16T00:31:07.121Z,47.88
2023-03-16T00:31:45.281Z,47.78
2023-03-16T00:32:25.845Z,48.09
2023-03-16T00:32:57.607Z,48.45
2023-03-16T00:33:29.896Z,48.01
2023-03-16T00:34:02.944Z,48.91
2023-03-16T00:34:34.750Z,48.57
2023-03-16T00:35:09.418Z,48.04
2023-03-16T00:35:50.423Z,48.25
2023-03-16T00:36:22.903Z,48.39
2023-03-16T00:36:55.437Z,48.79
2023-03-16T00:37:28.652Z,48.45
2023-03-16T00:38:00.461Z,48.63
2023-03-16T00:38:37.553Z,48.40
2023-03-16T00:39:11.814Z,48.39
2023-03-16T00:39:45.991Z,49.00
2023-03-16T00:40:17.793Z,49.20
2023-03-16T00:40:51.352Z,49.48
2023-03-16T00:41:23.112Z,49.13
2023-03-16T00:41:58.456Z,49.02
2023-03-16T00:42:31.550Z,48.83
2023-03-16T00:43:03.859Z,48.52
2023-03-16T00:43:45.470Z,49.53
2023-03-16T00:44:17.324Z,49.65
2023-03-16T00:44:49.141Z,48.83
2023-03-16T00:45:20.893Z,48.82
2023-03-16T00:45:58.866Z,49.29
2023-03-16T00:46:30.966Z,49.16
2023-03-16T00:47:04.722Z,49.24
2023-03-16T00:47:36.750Z,49.24
2023-03-16T00:48:08.522Z,48.84
2023-03-16T00:48:42.961Z,49.31
2023-03-16T00:49:14.708Z,49.32
2023-03-16T00:49:46.478Z,49.53
2023-03-16T00:50:22.394Z,49.35
2023-03-16T00:50:54.554Z,49.18
2023-03-16T00:51:26.390Z,50.00
2023-03-16T00:51:58.155Z,49.28
2023-03-16T00:52:30.269Z,49.11
2023-03-16T00:53:02.138Z,49.50
2023-03-16T00:53:35.352Z,49.55
2023-03-16T00:54:07.136Z,49.46
2023-03-16T00:54:38.974Z,49.44
2023-03-16T00:55:10.729Z,49.21
2023-03-16T00:55:42.519Z,49.50
2023-03-16T00:56:14.989Z,49.77
2023-03-16T00:56:46.875Z,48.91
2023-03-16T00:57:19.602Z,49.90
2023-03-16T00:57:51.377Z,49.45
2023-03-16T00:58:23.393Z,49.53
2023-03-16T00:58:57.909Z,49.95
2023-03-16T00:59:31.190Z,50.17
2023-03-16T01:00:13.041Z,50.36
2023-03-16T01:00:45.479Z,50.21
2023-03-16T01:01:20.395Z,50.11
2023-03-16T01:01:55.966Z,49.78
2023-03-16T01:02:27.915Z,50.04
2023-03-16T01:02:59.816Z,50.34
2023-03-16T01:03:32.362Z,50.69
2023-03-16T01:04:04.223Z,50.56
2023-03-16T01:04:37.041Z,50.91
2023-03-16T01:05:09.461Z,51.10
2023-03-16T01:05:42.594Z,51.16
2023-03-16T01:06:17.297Z,51.12
2023-03-16T01:06:50.483Z,50.40
2023-03-16T01:07:23.042Z,50.63
2023-03-16T01:07:54.820Z,50.76
2023-03-16T01:08:30.075Z,50.05
2023-03-16T01:09:05.798Z,50.81
2023-03-16T01:09:37.758Z,51.13
2023-03-16T01:10:10.300Z,50.89
2023-03-16T01:10:42.136Z,50.10
2023-03-16T01:11:17.235Z,50.70
2023-03-16T01:11:53.571Z,50.08
2023-03-16T01:12:25.368Z,50.54
2023-03-16T01:12:57.141Z,50.83
2023-03-16T01:13:29.302Z,50.51
2023-03-16T01:14:01.683Z,50.63
2023-03-16T01:14:35.240Z,50.58
2023-03-16T01:15:07.710Z,50.19
2023-03-16T01:15:39.542Z,50.38
2023-03-16T01:16:11.408Z,50.51
2023-03-16T01:16:46.036Z,50.87
2023-03-16T01:17:18.203Z,50.87
2023-03-16T01:17:50.048Z,50.55
2023-03-16T01:18:22.492Z,50.54
2023-03-16T01:18:55.331Z,50.36
2023-03-16T01:19:27.793Z,50.32
2023-03-16T01:19:59.536Z,50.29
2023-03-16T01:20:33.638Z,51.14
2023-03-16T01:21:09.094Z,51.02
2023-03-16T01:21:42.698Z,49.93
2023-03-16T01:22:15.969Z,50.94
2023-03-16T01:22:47.866Z,50.47
2023-03-16T01:23:21.075Z,50.25
2023-03-16T01:23:54.018Z,50.51
2023-03-16T01:24:25.917Z,51.05
2023-03-16T01:24:58.536Z,50.71
2023-03-16T01:25:30.380Z,50.61
2023-03-16T01:26:02.584Z,50.56
2023-03-16T01:26:34.546Z,50.25
2023-03-16T01:27:07.411Z,50.95
2023-03-16T01:27:39.296Z,50.16
2023-03-16T01:28:11.076Z,50.76
2023-03-16T01:28:44.492Z,49.80
2023-03-16T01:29:16.333Z,50.17
2023-03-16T01:29:48.238Z,50.80
2023-03-16T01:30:21.106Z,50.56
2023-03-16T01:30:57.869Z,50.62
2023-03-16T01:31:29.660Z,51.04
2023-03-16T01:32:02.724Z,51.10
2023-03-16T01:32:34.520Z,50.47
2023-03-16T01:33:06.324Z,50.44
2023-03-16T01:33:38.927Z,50.72
2023-03-16T01:34:16.598Z,51.18
2023-03-16T01:34:48.351Z,50.48
2023-03-16T01:35:21.916Z,51.00
2023-03-16T01:35:59.462Z,51.26
2023-03-16T01:36:32.091Z,51.33
2023-03-16T01:37:03.926Z,50.95
2023-03-16T01:37:35.675Z,51.50
2023-03-16T01:38:07.458Z,51.54
2023-03-16T01:38:39.820Z,51.86
2023-03-16T01:39:12.517Z,51.09
2023-03-16T01:39:44.299Z,51.86
2023-03-16T01:40:16.370Z,50.77
2023-03-16T01:40:51.505Z,51.33
2023-03-16T01:41:23.418Z,51.72
2023-03-16T01:41:55.254Z,52.17
2023-03-16T01:42:27.057Z,52.00
2023-03-16T01:43:03.166Z,52.46
2023-03-16T01:43:37.787Z,52.54
2023-03-16T01:44:24.515Z,52.61
2023-03-16T01:45:02.213Z,51.85
2023-03-16T01:46:05.151Z,52.35
2023-03-16T01:46:37.543Z,52.03
2023-03-16T01:47:09.375Z,51.76
2023-03-16T01:47:41.143Z,51.92
2023-03-16T01:48:13.171Z,52.62
2023-03-16T01:49:09.543Z,52.94
2023-03-16T01:49:41.381Z,52.80
2023-03-16T01:50:13.387Z,52.60
2023-03-16T01:50:46.032Z,52.79
2023-03-16T01:51:24.631Z,53.75
2023-03-16T01:52:07.164Z,53.90
2023-03-16T01:52:40.198Z,53.57
2023-03-16T01:53:12.170Z,53.54
2023-03-16T01:53:47.027Z,54.04
2023-03-16T01:54:33.920Z,54.31
2023-03-16T01:55:13.479Z,54.21
2023-03-16T01:55:46.958Z,54.19
2023-03-16T01:56:34.764Z,54.32
2023-03-16T01:57:11.906Z,53.79
2023-03-16T01:57:46.842Z,53.74
2023-03-16T01:58:18.776Z,53.80
2023-03-16T01:58:53.977Z,54.28
2023-03-16T01:59:44.929Z,53.74
2023-03-16T02:00:20.868Z,53.47
2023-03-16T02:00:52.735Z,53.84
2023-03-16T02:01:29.234Z,53.96
2023-03-16T02:02:02.866Z,54.27
2023-03-16T02:02:35.202Z,54.83
2023-03-16T02:03:13.971Z,54.24
2023-03-16T02:03:46.256Z,54.31
2023-03-16T02:04:50.093Z,54.63
2023-03-16T02:05:43.724Z,55.17
2023-03-16T02:06:19.209Z,55.50
2023-03-16T02:06:55.053Z,55.33
2023-03-16T02:07:29.316Z,55.55
2023-03-16T02:08:02.887Z,55.21
2023-03-16T02:08:38.855Z,55.79
2023-03-16T02:09:11.686Z,55.72
2023-03-16T02:09:47.264Z,55.23
2023-03-16T02:10:20.612Z,55.25
2023-03-16T02:10:54.750Z,55.64
2023-03-16T02:11:26.908Z,55.13
2023-03-16T02:11:59.736Z,55.28
2023-03-16T02:12:32.023Z,55.05
2023-03-16T02:13:04.415Z,55.43
2023-03-16T02:13:39.173Z,54.60
2023-03-16T02:14:12.520Z,54.29
2023-03-16T02:14:46.116Z,54.93
2023-03-16T02:15:17.843Z,54.23
2023-03-16T02:15:51.378Z,54.16
2023-03-16T02:16:23.507Z,54.18
2023-03-16T02:16:56.721Z,54.46
2023-03-16T02:17:31.871Z,54.89
2023-03-16T02:18:04.659Z,55.08
2023-03-16T02:18:36.709Z,55.16
2023-03-16T02:19:17.357Z,55.42
2023-03-16T02:20:25.437Z,55.88
2023-03-16T02:21:05.669Z,55.58
2023-03-16T02:21:48.059Z,56.38
2023-03-16T02:22:25.010Z,55.20
2023-03-16T02:22:57.510Z,53.86
2023-03-16T02:23:30.089Z,53.89
2023-03-16T02:24:03.338Z,55.01
2023-03-16T02:24:37.359Z,54.29
2023-03-16T02:25:10.580Z,54.28
2023-03-16T02:25:48.992Z,53.69
2023-03-16T02:26:59.520Z,53.04
2023-03-16T02:27:36.653Z,53.93
2023-03-16T02:28:37.411Z,54.52
2023-03-16T02:29:14.580Z,54.79
2023-03-16T02:29:54.974Z,53.96
2023-03-16T02:30:27.602Z,54.24
2023-03-16T02:31:00.392Z,53.35
2023-03-16T02:31:32.481Z,54.21
2023-03-16T02:32:05.817Z,53.75
2023-03-16T02:32:39.955Z,53.92
2023-03-16T02:33:13.003Z,53.65
2023-03-16T02:33:47.736Z,54.88
2023-03-16T02:34:19.802Z,54.85
2023-03-16T02:34:52.032Z,54.34
2023-03-16T02:35:24.088Z,53.87
2023-03-16T02:35:55.902Z,53.83
2023-03-16T02:36:30.064Z,54.32
2023-03-16T02:37:03.424Z,53.96
2023-03-16T02:37:35.673Z,54.42
2023-03-16T02:38:07.482Z,54.70
2023-03-16T02:38:39.305Z,55.04
2023-03-16T02:39:11.085Z,54.85
2023-03-16T02:39:44.216Z,54.94
2023-03-16T02:40:26.655Z,54.81
2023-03-16T02:41:12.653Z,55.47
2023-03-16T02:41:46.006Z,55.76
2023-03-16T02:42:26.585Z,56.10
2023-03-16T02:43:08.937Z,56.16
2023-03-16T02:43:46.803Z,56.33
2023-03-16T02:44:27.845Z,55.64
2023-03-16T02:45:00.485Z,55.54
2023-03-16T02:45:40.993Z,55.35
2023-03-16T02:46:14.844Z,55.56
2023-03-16T02:46:48.691Z,56.39
2023-03-16T02:47:32.493Z,56.46
2023-03-16T02:48:14.663Z,56.15
2023-03-16T02:49:05.896Z,56.07
2023-03-16T02:49:43.924Z,56.32
2023-03-16T02:50:15.897Z,56.27
2023-03-16T02:50:51.544Z,55.59
2023-03-16T02:51:23.310Z,55.93
2023-03-16T02:51:57.520Z,56.30
2023-03-16T02:52:29.300Z,56.08
2023-03-16T02:53:01.032Z,56.21
2023-03-16T02:53:32.808Z,55.74
2023-03-16T02:54:22.939Z,56.14
2023-03-16T02:54:55.676Z,56.29
2023-03-16T02:55:27.535Z,56.11
2023-03-16T02:55:59.267Z,55.80
2023-03-16T02:56:31.060Z,56.49
2023-03-16T02:57:02.848Z,56.59
2023-03-16T02:57:34.844Z,56.01
2023-03-16T02:58:06.831Z,56.60
2023-03-16T02:58:38.551Z,56.43
2023-03-16T02:59:10.373Z,56.13
2023-03-16T02:59:42.170Z,56.75
2023-03-16T03:00:18.995Z,56.05
2023-03-16T03:00:51.042Z,57.02
2023-03-16T03:01:23.266Z,57.20
2023-03-16T03:01:55.050Z,57.67
2023-03-16T03:02:26.882Z,57.09
2023-03-16T03:02:58.630Z,57.25
2023-03-16T03:03:30.691Z,57.30
2023-03-16T03:04:04.245Z,57.52
2023-03-16T03:04:35.987Z,58.16
2023-03-16T03:05:08.564Z,57.18
2023-03-16T03:05:40.520Z,57.49
2023-03-16T03:06:12.298Z,57.52
2023-03-16T03:06:44.374Z,57.62
2023-03-16T03:07:16.637Z,57.29
2023-03-16T03:08:07.209Z,58.04
2023-03-16T03:08:39.061Z,57.45
2023-03-16T03:09:11.813Z,58.22
2023-03-16T03:09:43.927Z,57.79
2023-03-16T03:10:16.080Z,58.17
2023-03-16T03:10:47.855Z,57.81
2023-03-16T03:11:19.827Z,57.87
2023-03-16T03:11:51.844Z,58.42
2023-03-16T03:12:23.771Z,57.83
2023-03-16T03:12:55.550Z,57.87
2023-03-16T03:13:27.865Z,58.24
2023-03-16T03:13:59.692Z,58.26
2023-03-16T03:14:31.412Z,57.92
2023-03-16T03:15:04.020Z,57.72
2023-03-16T03:15:36.097Z,58.62
2023-03-16T03:16:08.047Z,58.15
2023-03-16T03:16:39.875Z,58.25
2023-03-16T03:17:13.412Z,58.66
2023-03-16T03:17:46.680Z,58.76
2023-03-16T03:18:18.505Z,58.57
2023-03-16T03:18:52.803Z,58.59
2023-03-16T03:19:24.548Z,58.75
2023-03-16T03:20:00.737Z,58.76
2023-03-16T03:20:33.304Z,59.27
2023-03-16T03:21:05.649Z,58.89
2023-03-16T03:21:37.407Z,59.52
2023-03-16T03:22:09.206Z,59.26
2023-03-16T03:22:41.207Z,58.80
2023-03-16T03:23:15.430Z,59.74
2023-03-16T03:23:47.452Z,59.35
2023-03-16T03:24:19.237Z,59.42
2023-03-16T03:24:51.564Z,58.57
2023-03-16T03:25:23.755Z,58.82
2023-03-16T03:25:59.547Z,58.90
2023-03-16T03:26:31.368Z,59.10
2023-03-16T03:27:06.051Z,59.11
2023-03-16T03:27:38.737Z,58.52
2023-03-16T03:28:11.537Z,59.11
2023-03-16T03:28:46.490Z,58.55
2023-03-16T03:29:18.574Z,58.78
2023-03-16T03:29:50.338Z,58.58
2023-03-16T03:30:25.876Z,59.40
2023-03-16T03:30:57.857Z,59.60
2023-03-16T03:31:29.684Z,59.49
2023-03-16T03:32:02.354Z,60.33
2023-03-16T03:32:34.105Z,60.36
2023-03-16T03:33:06.033Z,59.98
2023-03-16T03:33:37.907Z,59.79
2023-03-16T03:34:10.072Z,59.81
2023-03-16T03:34:42.646Z,59.41
2023-03-16T03:35:16.131Z,59.94
2023-03-16T03:35:48.502Z,59.26
2023-03-16T03:36:22.249Z,59.43
2023-03-16T03:36:54.277Z,59.11
2023-03-16T03:37:26.096Z,60.33
2023-03-16T03:37:58.025Z,60.09
2023-03-16T03:38:29.813Z,60.03
2023-03-16T03:39:05.200Z,60.09
2023-03-16T03:39:37.115Z,59.57
2023-03-16T03:40:12.063Z,60.71
2023-03-16T03:40:43.796Z,60.16
2023-03-16T03:41:15.625Z,60.38
2023-03-16T03:41:47.370Z,60.22
2023-03-16T03:42:19.525Z,61.15
2023-03-16T03:42:51.640Z,60.38
2023-03-16T03:43:23.366Z,60.36
2023-03-16T03:43:55.119Z,60.49
2023-03-16T03:44:27.177Z,60.54
2023-03-16T03:44:58.908Z,61.15
2023-03-16T03:45:30.737Z,61.33
2023-03-16T03:46:04.154Z,61.26
2023-03-16T03:46:36.099Z,61.00
2023-03-16T03:47:08.128Z,61.11
2023-03-16T03:47:41.326Z,60.40
2023-03-16T03:48:13.425Z,61.64
2023-03-16T03:48:45.197Z,61.10
2023-03-16T03:49:17.105Z,61.48
2023-03-16T03:49:48.992Z,60.79
2023-03-16T03:50:21.538Z,60.79
2023-03-16T03:50:53.888Z,60.91
2023-03-16T03:51:25.761Z,60.51
2023-03-16T03:51:59.329Z,60.87
2023-03-16T03:52:31.114Z,61.23
2023-03-16T03:53:02.892Z,61.23
2023-03-16T03:53:34.628Z,61.04
2023-03-16T03:54:06.502Z,61.44
2023-03-16T03:54:38.298Z,62.12
2023-03-16T03:55:10.888Z,61.77
2023-03-16T03:55:42.650Z,62.57
2023-03-16T03:56:14.445Z,62.72
2023-03-16T03:56:46.277Z,62.41
2023-03-16T03:57:19.105Z,62.47
2023-03-16T03:57:51.583Z,62.03
2023-03-16T03:58:23.445Z,61.10
2023-03-16T03:58:55.240Z,61.27
2023-03-16T03:59:27.402Z,60.70
2023-03-16T03:59:59.131Z,60.62
2023-03-16T04:00:31.228Z,61.31
2023-03-16T04:01:02.976Z,60.72
2023-03-16T04:01:34.791Z,61.64
2023-03-16T04:02:06.921Z,61.71
2023-03-16T04:02:38.990Z,61.70
2023-03-16T04:03:10.984Z,61.95
2023-03-16T04:03:45.177Z,62.39
2023-03-16T04:04:17.026Z,62.02
2023-03-16T04:04:49.068Z,62.19
2023-03-16T04:05:22.024Z,61.91
2023-03-16T04:05:53.748Z,62.58
2023-03-16T04:06:25.524Z,62.48
2023-03-16T04:06:57.277Z,62.29
2023-03-16T04:07:29.308Z,62.65
2023-03-16T04:08:01.082Z,62.97
2023-03-16T04:08:32.984Z,63.20
2023-03-16T04:09:05.562Z,63.44
2023-03-16T04:09:37.518Z,62.78
2023-03-16T04:10:09.975Z,62.42
2023-03-16T04:10:41.731Z,62.39
2023-03-16T04:11:13.584Z,63.06
2023-03-16T04:11:45.400Z,62.76
2023-03-16T04:12:17.349Z,62.56
2023-03-16T04:12:49.127Z,62.77
2023-03-16T04:13:20.859Z,63.37
2023-03-16T04:13:53.564Z,63.44
2023-03-16T04:14:25.276Z,63.64
2023-03-16T04:14:57.134Z,63.84
2023-03-16T04:15:28.961Z,63.13
2023-03-16T04:16:04.904Z,63.77
2023-03-16T04:16:36.895Z,63.45
2023-03-16T04:17:09.080Z,64.14
2023-03-16T04:17:40.856Z,63.64
2023-03-16T04:18:13.092Z,63.73
2023-03-16T04:18:46.273Z,64.19
2023-03-16T04:19:18.066Z,64.47
2023-03-16T04:19:50.253Z,63.83
2023-03-16T04:20:23.281Z,63.75
2023-03-16T04:20:55.489Z,63.88
2023-03-16T04:21:27.576Z,64.13
2023-03-16T04:21:59.342Z,63.50
2023-03-16T04:22:31.189Z,63.53
2023-03-16T04:23:03.004Z,63.58
2023-03-16T04:23:34.884Z,63.79
2023-03-16T04:24:06.853Z,63.35
2023-03-16T04:24:38.783Z,63.50
2023-03-16T04:25:12.352Z,63.12
2023-03-16T04:25:45.435Z,63.26
2023-03-16T04:26:18.007Z,63.07
2023-03-16T04:26:49.840Z,64.04
2023-03-16T04:27:21.722Z,64.42
2023-03-16T04:27:54.119Z,63.71
2023-03-16T04:28:26.852Z,63.96
2023-03-16T04:28:59.200Z,63.67
2023-03-16T04:29:32.089Z,63.98
2023-03-16T04:30:11.327Z,63.60
2023-03-16T04:30:43.089Z,64.37
2023-03-16T04:31:14.925Z,63.93
2023-03-16T04:31:46.987Z,64.54
2023-03-16T04:32:18.703Z,64.81
2023-03-16T04:32:51.426Z,64.52
2023-03-16T04:33:23.229Z,64.16
2023-03-16T04:33:54.989Z,64.19
2023-03-16T04:34:27.024Z,64.51
2023-03-16T04:34:58.737Z,64.41
2023-03-16T04:35:31.928Z,64.11
2023-03-16T04:36:05.868Z,64.22
2023-03-16T04:36:39.006Z,64.88
2023-03-16T04:37:10.921Z,64.07
2023-03-16T04:37:42.708Z,64.09
2023-03-16T04:38:14.870Z,64.12
2023-03-16T04:38:46.646Z,64.16
2023-03-16T04:39:19.937Z,64.25
2023-03-16T04:39:51.850Z,64.76
2023-03-16T04:40:23.767Z,64.81
2023-03-16T04:40:56.378Z,64.59
2023-03-16T04:41:28.145Z,65.16
2023-03-16T04:41:59.913Z,64.60
2023-03-16T04:42:31.676Z,64.81
2023-03-16T04:43:03.513Z,65.19
2023-03-16T04:43:35.517Z,65.10
2023-03-16T04:44:07.969Z,65.20
2023-03-16T04:44:44.422Z,65.00
2023-03-16T04:45:20.478Z,65.46
2023-03-16T04:45:52.262Z,65.55
2023-03-16T04:46:24.997Z,65.56
2023-03-16T04:46:56.735Z,65.28
2023-03-16T04:47:28.520Z,65.87
2023-03-16T04:48:00.539Z,64.98
2023-03-16T04:48:32.558Z,64.88
2023-03-16T04:49:04.350Z,64.85
2023-03-16T04:49:36.197Z,64.90
2023-03-16T04:50:09.002Z,64.34
2023-03-16T04:50:41.045Z,64.62
2023-03-16T04:51:12.970Z,65.29
2023-03-16T04:51:44.774Z,65.70
2023-03-16T04:52:16.529Z,65.81
2023-03-16T04:52:48.542Z,65.83
2023-03-16T04:53:20.359Z,64.96
2023-03-16T04:53:54.128Z,64.74
2023-03-16T04:54:25.881Z,65.51
2023-03-16T04:54:57.729Z,66.02
2023-03-16T04:55:29.739Z,66.53
2023-03-16T04:56:01.684Z,66.42
2023-03-16T04:56:33.921Z,66.96
2023-03-16T04:57:05.990Z,65.91
2023-03-16T04:57:37.914Z,66.19
2023-03-16T04:58:09.686Z,65.93
2023-03-16T04:58:41.708Z,65.50
2023-03-16T04:59:13.593Z,65.89
2023-03-16T04:59:45.564Z,65.94
2023-03-16T05:00:21.185Z,65.94
2023-03-16T05:00:54.382Z,66.11
2023-03-16T05:01:26.373Z,65.28
2023-03-16T05:01:58.294Z,65.29
2023-03-16T05:02:30.149Z,65.96
2023-03-16T05:03:02.825Z,66.34
2023-03-16T05:03:34.952Z,67.05
2023-03-16T05:04:06.689Z,66.52
2023-03-16T05:04:38.482Z,66.37
2023-03-16T05:05:10.520Z,67.46
2023-03-16T05:05:42.641Z,66.55
2023-03-16T05:06:14.534Z,66.67
2023-03-16T05:06:46.313Z,66.80
2023-03-16T05:07:18.154Z,66.54
2023-03-16T05:07:50.612Z,66.40
2023-03-16T05:08:22.639Z,66.95
2023-03-16T05:08:54.398Z,66.90
2023-03-16T05:09:26.177Z,66.65
2023-03-16T05:09:57.997Z,67.07
2023-03-16T05:10:30.046Z,66.72
2023-03-16T05:11:02.092Z,66.94
2023-03-16T05:11:33.894Z,66.94
2023-03-16T05:12:05.932Z,66.98
2023-03-16T05:12:37.741Z,67.64
2023-03-16T05:13:09.540Z,68.43
2023-03-16T05:13:41.275Z,68.01
2023-03-16T05:14:13.017Z,68.19
2023-03-16T05:14:44.822Z,68.49
2023-03-16T05:15:16.647Z,67.81
2023-03-16T05:15:48.456Z,68.54
2023-03-16T05:16:20.253Z,68.54
2023-03-16T05:16:52.346Z,68.02
2023-03-16T05:17:25.567Z,68.06
2023-03-16T05:17:57.821Z,66.83
2023-03-16T05:18:29.646Z,66.80
2023-03-16T05:19:02.108Z,67.63
2023-03-16T05:19:34.053Z,66.89
2023-03-16T05:20:09.267Z,67.09
2023-03-16T05:20:42.199Z,67.25
2023-03-16T05:21:14.909Z,67.34
2023-03-16T05:21:46.715Z,67.75
2023-03-16T05:22:18.569Z,67.71
2023-03-16T05:22:50.940Z,67.55
2023-03-16T05:23:23.812Z,67.72
2023-03-16T05:23:55.662Z,67.38
2023-03-16T05:24:27.431Z,67.11
2023-03-16T05:25:03.493Z,67.76
2023-03-16T05:25:35.368Z,67.79
2023-03-16T05:26:07.768Z,67.53
2023-03-16T05:26:40.169Z,67.85
2023-03-16T05:27:12.007Z,67.31
2023-03-16T05:27:51.935Z,67.59
2023-03-16T05:28:23.803Z,67.68
2023-03-16T05:28:55.697Z,67.25
2023-03-16T05:29:27.434Z,67.38
2023-03-16T05:29:59.241Z,68.01
2023-03-16T05:30:31.528Z,67.94
2023-03-16T05:31:03.979Z,67.90
2023-03-16T05:31:37.510Z,67.79
2023-03-16T05:32:09.224Z,67.39
2023-03-16T05:32:41.039Z,67.23
2023-03-16T05:33:13.237Z,67.68
2023-03-16T05:33:44.992Z,67.94
2023-03-16T05:34:16.772Z,67.89
2023-03-16T05:34:48.469Z,68.13
2023-03-16T05:35:22.486Z,68.32
2023-03-16T05:35:58.157Z,68.05
2023-03-16T05:36:30.075Z,67.46
2023-03-16T05:37:01.853Z,68.06
2023-03-16T05:37:38.146Z,67.87
2023-03-16T05:38:13.179Z,68.19
2023-03-16T05:38:45.776Z,68.31
2023-03-16T05:39:17.528Z,67.83
2023-03-16T05:39:49.348Z,67.38
2023-03-16T05:40:23.228Z,67.96
2023-03-16T05:40:57.736Z,67.60
2023-03-16T05:41:30.230Z,67.98
2023-03-16T05:42:01.965Z,67.92
2023-03-16T05:42:34.883Z,68.06
2023-03-16T05:43:06.681Z,67.66
2023-03-16T05:43:38.449Z,68.08
2023-03-16T05:44:10.779Z,68.33
2023-03-16T05:44:42.514Z,67.79
2023-03-16T05:45:16.497Z,68.35
2023-03-16T05:45:48.288Z,68.15
2023-03-16T05:46:20.936Z,68.06
2023-03-16T05:46:53.167Z,67.78
2023-03-16T05:47:25.040Z,67.92
2023-03-16T05:47:56.802Z,68.26
2023-03-16T05:48:28.647Z,68.07
2023-03-16T05:49:00.458Z,67.82
2023-03-16T05:49:32.484Z,67.49
2023-03-16T05:50:05.742Z,67.72
2023-03-16T05:50:37.660Z,68.04
2023-03-16T05:51:09.566Z,68.16
2023-03-16T05:51:41.431Z,67.84
2023-03-16T05:52:13.920Z,67.86
2023-03-16T05:52:46.433Z,67.87
2023-03-16T05:53:19.224Z,67.60
2023-03-16T05:53:50.982Z,67.35
2023-03-16T05:54:23.475Z,66.70
2023-03-16T05:54:55.234Z,66.71
2023-03-16T05:55:27.102Z,66.83
2023-03-16T05:55:59.342Z,66.50
2023-03-16T05:56:31.269Z,65.45
2023-03-16T05:57:03.107Z,65.68
2023-03-16T05:57:34.898Z,65.67
2023-03-16T05:58:06.703Z,66.08
2023-03-16T05:58:38.532Z,65.82
2023-03-16T05:59:10.311Z,66.29
2023-03-16T05:59:42.088Z,66.07
2023-03-16T06:00:16.375Z,65.88
2023-03-16T06:00:48.392Z,65.68
2023-03-16T06:01:21.486Z,64.91
2023-03-16T06:01:53.353Z,64.49
2023-03-16T06:02:25.627Z,65.40
2023-03-16T06:02:57.716Z,65.01
2023-03-16T06:03:29.538Z,64.82
2023-03-16T06:04:03.324Z,63.81
2023-03-16T06:04:35.179Z,63.18
2023-03-16T06:05:07.710Z,63.82
2023-03-16T06:05:39.500Z,64.34
2023-03-16T06:06:11.281Z,63.92
2023-03-16T06:06:43.716Z,62.91
2023-03-16T06:07:15.444Z,63.41
2023-03-16T06:07:48.229Z,62.93
2023-03-16T06:08:19.957Z,63.21
2023-03-16T06:08:52.471Z,63.68
2023-03-16T06:09:24.204Z,63.96
2023-03-16T06:09:55.990Z,64.24
2023-03-16T06:10:28.032Z,63.64
2023-03-16T06:10:59.956Z,63.94
2023-03-16T06:11:33.032Z,63.04
2023-03-16T06:12:04.900Z,63.04
2023-03-16T06:12:36.728Z,62.49
2023-03-16T06:13:08.513Z,62.87
2023-03-16T06:13:41.101Z,62.24
2023-03-16T06:14:12.860Z,62.10
2023-03-16T06:14:44.762Z,61.92
2023-03-16T06:15:16.600Z,60.91
2023-03-16T06:15:49.400Z,61.30
2023-03-16T06:16:21.290Z,61.34
2023-03-16T06:16:53.049Z,61.48
2023-03-16T06:17:24.879Z,61.25
2023-03-16T06:17:56.906Z,60.85
2023-03-16T06:18:29.157Z,60.34
2023-03-16T06:19:01.090Z,59.95
2023-03-16T06:19:32.871Z,59.87
2023-03-16T06:20:11.128Z,58.91
2023-03-16T06:20:43.470Z,58.81
2023-03-16T06:21:15.287Z,58.66
2023-03-16T06:22:19.754Z,58.08
2023-03-16T06:22:51.626Z,58.38
2023-03-16T06:23:23.765Z,57.61
2023-03-16T06:23:56.123Z,57.85
2023-03-16T06:24:27.950Z,58.53
2023-03-16T06:24:59.714Z,57.58
2023-03-16T06:25:31.496Z,57.94
2023-03-16T06:26:03.333Z,57.68
2023-03-16T06:26:36.428Z,57.54
2023-03-16T06:27:08.419Z,57.57
2023-03-16T06:27:40.631Z,57.10
2023-03-16T06:28:12.448Z,57.25
2023-03-16T06:28:44.212Z,57.33
2023-03-16T06:29:16.051Z,57.12
2023-03-16T06:29:48.038Z,57.07
2023-03-16T06:30:19.917Z,56.99
2023-03-16T06:30:55.836Z,57.19
2023-03-16T06:31:28.132Z,58.21
2023-03-16T06:32:00.133Z,58.31
2023-03-16T06:32:32.047Z,57.13
2023-03-16T06:33:04.014Z,57.12
2023-03-16T06:33:35.797Z,57.24
2023-03-16T06:34:07.931Z,57.63
2023-03-16T06:34:40.497Z,57.60
2023-03-16T06:35:12.805Z,57.17
2023-03-16T06:35:44.645Z,57.11
2023-03-16T06:36:16.462Z,57.47
2023-03-16T06:36:48.432Z,58.22
2023-03-16T06:37:20.217Z,57.90
2023-03-16T06:37:52.189Z,57.25
2023-03-16T06:38:23.968Z,57.76
2023-03-16T06:38:55.755Z,57.34
2023-03-16T06:39:27.538Z,56.98
2023-03-16T06:39:59.489Z,57.47
2023-03-16T06:40:31.894Z,58.01
2023-03-16T06:41:03.764Z,57.49
2023-03-16T06:41:35.980Z,57.12
2023-03-16T06:42:07.836Z,56.92
2023-03-16T06:42:39.678Z,57.42
2023-03-16T06:43:12.056Z,57.06
2023-03-16T06:43:43.833Z,55.77
2023-03-16T06:44:15.600Z,55.11
2023-03-16T06:44:47.399Z,55.35
2023-03-16T06:45:22.255Z,55.90
2023-03-16T06:45:54.121Z,55.69
2023-03-16T06:46:26.033Z,56.43
2023-03-16T06:46:58.508Z,56.15
2023-03-16T06:47:30.279Z,56.27
2023-03-16T06:48:02.174Z,56.65
2023-03-16T06:48:33.952Z,55.54
2023-03-16T06:49:05.858Z,55.77
2023-03-16T06:49:37.818Z,57.10
2023-03-16T06:50:11.898Z,57.03
2023-03-16T06:50:45.624Z,57.25
2023-03-16T06:51:17.394Z,56.85
2023-03-16T06:51:49.491Z,56.72
2023-03-16T06:52:22.073Z,57.26
2023-03-16T06:52:53.913Z,56.87
2023-03-16T06:53:26.293Z,56.94
2023-03-16T06:53:58.245Z,56.46
2023-03-16T06:54:32.431Z,56.66
2023-03-16T06:55:04.943Z,56.19
2023-03-16T06:55:36.664Z,56.95
2023-03-16T06:56:08.532Z,58.30
2023-03-16T06:56:40.395Z,58.24
2023-03-16T06:57:12.343Z,58.41
2023-03-16T06:57:44.150Z,58.50
2023-03-16T06:58:16.084Z,58.18
2023-03-16T06:58:48.001Z,57.68
2023-03-16T06:59:19.788Z,56.53
2023-03-16T06:59:51.527Z,56.85
2023-03-16T07:00:23.661Z,56.54
2023-03-16T07:00:55.498Z,57.63
2023-03-16T07:01:27.380Z,57.94
2023-03-16T07:01:59.218Z,57.81
2023-03-16T07:02:32.338Z,56.62
2023-03-16T07:03:04.334Z,55.54
2023-03-16T07:03:36.131Z,55.64
2023-03-16T07:04:08.302Z,56.29
2023-03-16T07:04:40.928Z,55.30
2023-03-16T07:05:15.641Z,54.55
2023-03-16T07:05:47.572Z,54.70
2023-03-16T07:06:19.375Z,54.40
2023-03-16T07:06:51.558Z,55.30
2023-03-16T07:07:24.626Z,55.25
2023-03-16T07:07:56.415Z,55.25
2023-03-16T07:08:28.164Z,55.44
2023-03-16T07:09:01.552Z,55.56